sensor_id;sensor_type;location;lat;lon;timestamp;P1;durP1;ratioP1;P2;durP2;ratioP2
12990;SDS011;6560;57.692;11.958;2022-10-29T00:01:16;66.15;;;30.52;;
12990;SDS011;6560;57.692;11.958;2022-10-29T00:03:41;77.75;;;32.92;;
12990;SDS011;6560;57.692;11.958;2022-10-29T00:06:09;75.13;;;32.17;;
12990;SDS011;6560;57.692;11.958;2022-10-29T00:08:36;71.47;;;31.58;;
12990;SDS011;6560;57.692;11.958;2022-10-29T00:11:10;73.72;;;30.05;;
12990;SDS011;6560;57.692;11.958;2022-10-29T00:13:38;59.55;;;27.27;;
12990;SDS011;6560;57.692;11.958;2022-10-29T00:16:05;67.05;;;29.73;;
12990;SDS011;6560;57.692;11.958;2022-10-29T00:18:32;53.53;;;26.05;;
12990;SDS011;6560;57.692;11.958;2022-10-29T00:20:58;53.05;;;23.50;;
12990;SDS011;6560;57.692;11.958;2022-10-29T00:23:28;47.83;;;22.77;;
12990;SDS011;6560;57.692;11.958;2022-10-29T00:25:57;47.38;;;20.42;;
12990;SDS011;6560;57.692;11.958;2022-10-29T00:28:23;41.00;;;19.48;;
12990;SDS011;6560;57.692;11.958;2022-10-29T00:30:48;42.88;;;19.52;;
12990;SDS011;6560;57.692;11.958;2022-10-29T00:33:14;40.92;;;18.60;;
12990;SDS011;6560;57.692;11.958;2022-10-29T00:35:42;41.15;;;18.23;;
12990;SDS011;6560;57.692;11.958;2022-10-29T00:38:24;35.38;;;14.40;;
12990;SDS011;6560;57.692;11.958;2022-10-29T00:40:50;36.97;;;13.75;;
12990;SDS011;6560;57.692;11.958;2022-10-29T00:43:17;30.55;;;11.35;;
12990;SDS011;6560;57.692;11.958;2022-10-29T00:45:46;28.23;;;9.68;;
12990;SDS011;6560;57.692;11.958;2022-10-29T00:48:24;33.75;;;8.98;;
12990;SDS011;6560;57.692;11.958;2022-10-29T00:50:53;35.85;;;9.23;;
12990;SDS011;6560;57.692;11.958;2022-10-29T00:53:22;31.05;;;8.60;;
12990;SDS011;6560;57.692;11.958;2022-10-29T00:55:51;29.30;;;7.60;;
12990;SDS011;6560;57.692;11.958;2022-10-29T00:58:17;31.83;;;7.68;;
12990;SDS011;6560;57.692;11.958;2022-10-29T01:00:43;36.53;;;7.78;;
12990;SDS011;6560;57.692;11.958;2022-10-29T01:03:09;30.98;;;6.88;;
12990;SDS011;6560;57.692;11.958;2022-10-29T01:05:34;29.33;;;6.67;;
12990;SDS011;6560;57.692;11.958;2022-10-29T01:08:01;34.67;;;7.00;;
12990;SDS011;6560;57.692;11.958;2022-10-29T01:10:34;31.80;;;6.43;;
12990;SDS011;6560;57.692;11.958;2022-10-29T01:15:35;32.88;;;7.55;;
12990;SDS011;6560;57.692;11.958;2022-10-29T01:28:55;34.03;;;7.67;;
12990;SDS011;6560;57.692;11.958;2022-10-29T01:34:32;30.40;;;7.80;;
12990;SDS011;6560;57.692;11.958;2022-10-29T01:42:38;37.50;;;6.75;;
12990;SDS011;6560;57.692;11.958;2022-10-29T01:45:12;24.42;;;5.75;;
12990;SDS011;6560;57.692;11.958;2022-10-29T01:47:53;33.37;;;5.83;;
12990;SDS011;6560;57.692;11.958;2022-10-29T01:50:26;33.38;;;6.55;;
12990;SDS011;6560;57.692;11.958;2022-10-29T01:52:52;38.03;;;7.78;;
12990;SDS011;6560;57.692;11.958;2022-10-29T01:55:20;44.73;;;8.20;;
12990;SDS011;6560;57.692;11.958;2022-10-29T01:57:47;48.17;;;8.23;;
12990;SDS011;6560;57.692;11.958;2022-10-29T02:00:17;58.05;;;8.32;;
12990;SDS011;6560;57.692;11.958;2022-10-29T02:05:38;43.83;;;8.20;;
12990;SDS011;6560;57.692;11.958;2022-10-29T02:13:32;29.33;;;6.60;;
12990;SDS011;6560;57.692;11.958;2022-10-29T02:16:01;39.37;;;9.00;;
12990;SDS011;6560;57.692;11.958;2022-10-29T02:18:37;28.27;;;7.30;;
12990;SDS011;6560;57.692;11.958;2022-10-29T02:21:04;38.57;;;8.00;;
12990;SDS011;6560;57.692;11.958;2022-10-29T02:23:29;43.33;;;8.70;;
12990;SDS011;6560;57.692;11.958;2022-10-29T02:25:55;35.83;;;9.10;;
12990;SDS011;6560;57.692;11.958;2022-10-29T02:28:20;36.30;;;6.90;;
12990;SDS011;6560;57.692;11.958;2022-10-29T02:30:46;35.90;;;7.17;;
12990;SDS011;6560;57.692;11.958;2022-10-29T02:33:11;36.13;;;7.30;;
12990;SDS011;6560;57.692;11.958;2022-10-29T02:35:37;37.43;;;7.87;;
12990;SDS011;6560;57.692;11.958;2022-10-29T02:38:02;39.23;;;8.57;;
12990;SDS011;6560;57.692;11.958;2022-10-29T02:40:28;48.63;;;8.57;;
12990;SDS011;6560;57.692;11.958;2022-10-29T02:42:53;43.47;;;8.40;;
12990;SDS011;6560;57.692;11.958;2022-10-29T02:45:19;34.10;;;7.70;;
12990;SDS011;6560;57.692;11.958;2022-10-29T02:47:45;38.90;;;6.93;;
12990;SDS011;6560;57.692;11.958;2022-10-29T02:50:10;42.00;;;8.30;;
12990;SDS011;6560;57.692;11.958;2022-10-29T02:52:36;32.07;;;6.93;;
12990;SDS011;6560;57.692;11.958;2022-10-29T02:55:01;39.67;;;7.83;;
12990;SDS011;6560;57.692;11.958;2022-10-29T02:57:27;32.67;;;6.73;;
12990;SDS011;6560;57.692;11.958;2022-10-29T02:59:52;45.77;;;8.73;;
12990;SDS011;6560;57.692;11.958;2022-10-29T03:02:18;32.47;;;7.57;;
12990;SDS011;6560;57.692;11.958;2022-10-29T03:04:43;40.23;;;7.70;;
12990;SDS011;6560;57.692;11.958;2022-10-29T03:07:09;37.90;;;8.37;;
12990;SDS011;6560;57.692;11.958;2022-10-29T03:09:34;41.10;;;8.83;;
12990;SDS011;6560;57.692;11.958;2022-10-29T03:12:00;36.57;;;7.60;;
12990;SDS011;6560;57.692;11.958;2022-10-29T03:14:25;41.10;;;7.30;;
12990;SDS011;6560;57.692;11.958;2022-10-29T03:16:51;48.10;;;7.87;;
12990;SDS011;6560;57.692;11.958;2022-10-29T03:19:16;34.83;;;7.40;;
12990;SDS011;6560;57.692;11.958;2022-10-29T03:21:42;48.63;;;9.00;;
12990;SDS011;6560;57.692;11.958;2022-10-29T03:24:07;34.27;;;7.73;;
12990;SDS011;6560;57.692;11.958;2022-10-29T03:26:32;33.27;;;8.00;;
12990;SDS011;6560;57.692;11.958;2022-10-29T03:28:58;33.43;;;8.27;;
12990;SDS011;6560;57.692;11.958;2022-10-29T03:31:24;41.23;;;8.10;;
12990;SDS011;6560;57.692;11.958;2022-10-29T03:33:49;33.30;;;7.53;;
12990;SDS011;6560;57.692;11.958;2022-10-29T03:36:15;36.47;;;7.53;;
12990;SDS011;6560;57.692;11.958;2022-10-29T03:38:40;33.10;;;8.33;;
12990;SDS011;6560;57.692;11.958;2022-10-29T03:41:05;36.37;;;7.53;;
12990;SDS011;6560;57.692;11.958;2022-10-29T03:43:35;32.10;;;7.20;;
12990;SDS011;6560;57.692;11.958;2022-10-29T03:46:01;28.63;;;6.97;;
12990;SDS011;6560;57.692;11.958;2022-10-29T03:48:26;31.00;;;7.70;;
12990;SDS011;6560;57.692;11.958;2022-10-29T03:50:52;43.27;;;8.17;;
12990;SDS011;6560;57.692;11.958;2022-10-29T03:53:22;34.77;;;7.70;;
12990;SDS011;6560;57.692;11.958;2022-10-29T03:55:49;30.60;;;6.00;;
12990;SDS011;6560;57.692;11.958;2022-10-29T03:58:18;36.23;;;6.43;;
12990;SDS011;6560;57.692;11.958;2022-10-29T04:01:06;33.83;;;6.90;;
12990;SDS011;6560;57.692;11.958;2022-10-29T04:03:32;26.87;;;6.13;;
12990;SDS011;6560;57.692;11.958;2022-10-29T04:05:59;23.57;;;6.60;;
12990;SDS011;6560;57.692;11.958;2022-10-29T04:08:26;29.23;;;5.40;;
12990;SDS011;6560;57.692;11.958;2022-10-29T04:10:51;29.03;;;6.27;;
12990;SDS011;6560;57.692;11.958;2022-10-29T04:13:17;29.43;;;5.97;;
12990;SDS011;6560;57.692;11.958;2022-10-29T04:15:43;33.33;;;5.30;;
12990;SDS011;6560;57.692;11.958;2022-10-29T04:18:09;32.37;;;5.73;;
12990;SDS011;6560;57.692;11.958;2022-10-29T04:20:36;30.07;;;5.47;;
12990;SDS011;6560;57.692;11.958;2022-10-29T04:23:03;31.27;;;5.97;;
12990;SDS011;6560;57.692;11.958;2022-10-29T04:25:28;35.80;;;6.23;;
12990;SDS011;6560;57.692;11.958;2022-10-29T04:27:54;28.00;;;5.83;;
12990;SDS011;6560;57.692;11.958;2022-10-29T04:30:21;40.80;;;5.33;;
12990;SDS011;6560;57.692;11.958;2022-10-29T04:32:47;25.20;;;4.43;;
12990;SDS011;6560;57.692;11.958;2022-10-29T04:35:13;31.67;;;5.63;;
12990;SDS011;6560;57.692;11.958;2022-10-29T04:37:38;20.03;;;5.30;;
12990;SDS011;6560;57.692;11.958;2022-10-29T04:40:04;21.57;;;5.30;;
12990;SDS011;6560;57.692;11.958;2022-10-29T04:42:34;15.17;;;4.00;;
12990;SDS011;6560;57.692;11.958;2022-10-29T04:45:00;22.27;;;5.60;;
12990;SDS011;6560;57.692;11.958;2022-10-29T04:47:26;26.57;;;5.13;;
12990;SDS011;6560;57.692;11.958;2022-10-29T04:49:53;16.57;;;4.30;;
12990;SDS011;6560;57.692;11.958;2022-10-29T04:52:18;26.90;;;4.93;;
12990;SDS011;6560;57.692;11.958;2022-10-29T04:54:44;24.70;;;5.47;;
12990;SDS011;6560;57.692;11.958;2022-10-29T04:57:09;33.63;;;6.83;;
12990;SDS011;6560;57.692;11.958;2022-10-29T04:59:35;37.70;;;6.43;;
12990;SDS011;6560;57.692;11.958;2022-10-29T05:02:00;34.77;;;6.27;;
12990;SDS011;6560;57.692;11.958;2022-10-29T05:04:26;33.97;;;7.10;;
12990;SDS011;6560;57.692;11.958;2022-10-29T05:06:53;39.87;;;8.57;;
12990;SDS011;6560;57.692;11.958;2022-10-29T05:09:19;32.83;;;6.30;;
12990;SDS011;6560;57.692;11.958;2022-10-29T05:11:44;39.73;;;6.77;;
12990;SDS011;6560;57.692;11.958;2022-10-29T05:14:10;38.27;;;6.60;;
12990;SDS011;6560;57.692;11.958;2022-10-29T05:16:35;40.17;;;7.37;;
12990;SDS011;6560;57.692;11.958;2022-10-29T05:19:01;41.60;;;7.67;;
12990;SDS011;6560;57.692;11.958;2022-10-29T05:21:27;45.93;;;8.77;;
12990;SDS011;6560;57.692;11.958;2022-10-29T05:23:53;34.83;;;6.53;;
12990;SDS011;6560;57.692;11.958;2022-10-29T05:26:18;34.00;;;6.93;;
12990;SDS011;6560;57.692;11.958;2022-10-29T05:28:44;33.77;;;7.20;;
12990;SDS011;6560;57.692;11.958;2022-10-29T05:31:09;33.33;;;6.50;;
12990;SDS011;6560;57.692;11.958;2022-10-29T05:33:35;33.57;;;7.27;;
12990;SDS011;6560;57.692;11.958;2022-10-29T05:36:00;27.03;;;6.13;;
12990;SDS011;6560;57.692;11.958;2022-10-29T05:38:26;35.37;;;8.33;;
12990;SDS011;6560;57.692;11.958;2022-10-29T05:40:51;34.97;;;6.57;;
12990;SDS011;6560;57.692;11.958;2022-10-29T05:43:17;33.60;;;8.70;;
12990;SDS011;6560;57.692;11.958;2022-10-29T05:45:42;30.60;;;5.23;;
12990;SDS011;6560;57.692;11.958;2022-10-29T05:48:09;32.20;;;6.57;;
12990;SDS011;6560;57.692;11.958;2022-10-29T05:50:35;33.27;;;5.80;;
12990;SDS011;6560;57.692;11.958;2022-10-29T05:53:02;30.60;;;6.63;;
12990;SDS011;6560;57.692;11.958;2022-10-29T05:55:29;35.83;;;6.33;;
12990;SDS011;6560;57.692;11.958;2022-10-29T05:58:00;24.63;;;4.93;;
12990;SDS011;6560;57.692;11.958;2022-10-29T06:00:28;31.90;;;5.67;;
12990;SDS011;6560;57.692;11.958;2022-10-29T06:02:55;25.70;;;4.53;;
12990;SDS011;6560;57.692;11.958;2022-10-29T06:05:21;24.40;;;5.33;;
12990;SDS011;6560;57.692;11.958;2022-10-29T06:07:56;21.03;;;5.13;;
12990;SDS011;6560;57.692;11.958;2022-10-29T06:10:23;28.03;;;4.63;;
12990;SDS011;6560;57.692;11.958;2022-10-29T06:12:50;22.67;;;5.30;;
12990;SDS011;6560;57.692;11.958;2022-10-29T06:15:16;21.90;;;4.73;;
12990;SDS011;6560;57.692;11.958;2022-10-29T06:17:42;26.00;;;5.23;;
12990;SDS011;6560;57.692;11.958;2022-10-29T06:20:09;24.97;;;5.57;;
12990;SDS011;6560;57.692;11.958;2022-10-29T06:22:35;27.47;;;6.00;;
12990;SDS011;6560;57.692;11.958;2022-10-29T06:25:01;19.60;;;4.30;;
12990;SDS011;6560;57.692;11.958;2022-10-29T06:27:27;17.93;;;4.13;;
12990;SDS011;6560;57.692;11.958;2022-10-29T06:29:52;19.13;;;5.03;;
12990;SDS011;6560;57.692;11.958;2022-10-29T06:32:17;22.23;;;4.50;;
12990;SDS011;6560;57.692;11.958;2022-10-29T06:34:43;22.13;;;4.20;;
12990;SDS011;6560;57.692;11.958;2022-10-29T06:37:09;23.63;;;5.27;;
12990;SDS011;6560;57.692;11.958;2022-10-29T06:39:34;17.17;;;3.83;;
12990;SDS011;6560;57.692;11.958;2022-10-29T06:42:00;22.97;;;4.67;;
12990;SDS011;6560;57.692;11.958;2022-10-29T06:44:25;38.50;;;5.27;;
12990;SDS011;6560;57.692;11.958;2022-10-29T06:46:51;19.93;;;5.17;;
12990;SDS011;6560;57.692;11.958;2022-10-29T06:49:17;22.90;;;4.47;;
12990;SDS011;6560;57.692;11.958;2022-10-29T06:51:42;23.93;;;4.53;;
12990;SDS011;6560;57.692;11.958;2022-10-29T06:54:08;22.47;;;4.30;;
12990;SDS011;6560;57.692;11.958;2022-10-29T06:56:33;18.40;;;4.50;;
12990;SDS011;6560;57.692;11.958;2022-10-29T06:58:59;21.27;;;5.43;;
12990;SDS011;6560;57.692;11.958;2022-10-29T07:01:24;15.50;;;4.17;;
12990;SDS011;6560;57.692;11.958;2022-10-29T07:03:52;18.37;;;4.60;;
12990;SDS011;6560;57.692;11.958;2022-10-29T07:06:18;25.03;;;4.63;;
12990;SDS011;6560;57.692;11.958;2022-10-29T07:08:43;31.03;;;5.67;;
12990;SDS011;6560;57.692;11.958;2022-10-29T07:11:09;18.50;;;5.10;;
12990;SDS011;6560;57.692;11.958;2022-10-29T07:13:34;21.60;;;4.73;;
12990;SDS011;6560;57.692;11.958;2022-10-29T07:16:00;28.63;;;5.00;;
12990;SDS011;6560;57.692;11.958;2022-10-29T07:18:25;21.43;;;4.57;;
12990;SDS011;6560;57.692;11.958;2022-10-29T07:20:51;23.30;;;5.60;;
12990;SDS011;6560;57.692;11.958;2022-10-29T07:23:16;22.07;;;5.83;;
12990;SDS011;6560;57.692;11.958;2022-10-29T07:25:42;26.33;;;5.73;;
12990;SDS011;6560;57.692;11.958;2022-10-29T07:30:37;21.43;;;4.10;;
12990;SDS011;6560;57.692;11.958;2022-10-29T07:33:03;18.00;;;4.07;;
12990;SDS011;6560;57.692;11.958;2022-10-29T07:35:28;21.10;;;4.30;;
12990;SDS011;6560;57.692;11.958;2022-10-29T07:37:59;25.20;;;5.70;;
12990;SDS011;6560;57.692;11.958;2022-10-29T07:40:26;19.07;;;4.13;;
12990;SDS011;6560;57.692;11.958;2022-10-29T07:42:52;26.90;;;6.07;;
12990;SDS011;6560;57.692;11.958;2022-10-29T07:45:17;32.08;;;5.88;;
12990;SDS011;6560;57.692;11.958;2022-10-29T07:47:43;22.57;;;5.57;;
12990;SDS011;6560;57.692;11.958;2022-10-29T07:50:08;25.38;;;5.32;;
12990;SDS011;6560;57.692;11.958;2022-10-29T07:52:34;24.67;;;4.30;;
12990;SDS011;6560;57.692;11.958;2022-10-29T07:55:00;24.27;;;3.90;;
12990;SDS011;6560;57.692;11.958;2022-10-29T07:57:26;25.67;;;4.47;;
12990;SDS011;6560;57.692;11.958;2022-10-29T07:59:52;25.10;;;4.88;;
12990;SDS011;6560;57.692;11.958;2022-10-29T08:02:18;25.30;;;5.13;;
12990;SDS011;6560;57.692;11.958;2022-10-29T08:04:43;21.17;;;4.97;;
12990;SDS011;6560;57.692;11.958;2022-10-29T08:07:09;25.37;;;6.47;;
12990;SDS011;6560;57.692;11.958;2022-10-29T08:09:34;21.10;;;4.95;;
12990;SDS011;6560;57.692;11.958;2022-10-29T08:12:00;26.85;;;5.28;;
12990;SDS011;6560;57.692;11.958;2022-10-29T08:14:25;19.87;;;4.23;;
12990;SDS011;6560;57.692;11.958;2022-10-29T08:16:54;21.20;;;5.60;;
12990;SDS011;6560;57.692;11.958;2022-10-29T08:19:19;21.00;;;4.78;;
12990;SDS011;6560;57.692;11.958;2022-10-29T08:21:45;17.25;;;4.10;;
12990;SDS011;6560;57.692;11.958;2022-10-29T08:24:11;23.13;;;4.00;;
12990;SDS011;6560;57.692;11.958;2022-10-29T08:26:36;25.73;;;5.35;;
12990;SDS011;6560;57.692;11.958;2022-10-29T08:29:02;21.88;;;6.30;;
12990;SDS011;6560;57.692;11.958;2022-10-29T08:31:27;19.75;;;5.15;;
12990;SDS011;6560;57.692;11.958;2022-10-29T08:33:53;26.77;;;5.10;;
12990;SDS011;6560;57.692;11.958;2022-10-29T08:36:18;26.20;;;5.63;;
12990;SDS011;6560;57.692;11.958;2022-10-29T08:38:45;20.88;;;5.05;;
12990;SDS011;6560;57.692;11.958;2022-10-29T08:44:01;19.80;;;4.70;;
12990;SDS011;6560;57.692;11.958;2022-10-29T08:49:03;25.13;;;4.57;;
12990;SDS011;6560;57.692;11.958;2022-10-29T08:51:35;27.40;;;5.65;;
12990;SDS011;6560;57.692;11.958;2022-10-29T08:54:02;21.05;;;5.35;;
12990;SDS011;6560;57.692;11.958;2022-10-29T08:56:35;22.23;;;5.38;;
12990;SDS011;6560;57.692;11.958;2022-10-29T08:59:08;20.65;;;4.25;;
12990;SDS011;6560;57.692;11.958;2022-10-29T09:01:38;22.20;;;4.93;;
12990;SDS011;6560;57.692;11.958;2022-10-29T09:04:13;22.55;;;4.13;;
12990;SDS011;6560;57.692;11.958;2022-10-29T09:07:00;22.58;;;4.47;;
12990;SDS011;6560;57.692;11.958;2022-10-29T09:09:53;18.27;;;5.70;;
12990;SDS011;6560;57.692;11.958;2022-10-29T09:12:40;17.85;;;4.30;;
12990;SDS011;6560;57.692;11.958;2022-10-29T09:20:53;21.42;;;4.68;;
12990;SDS011;6560;57.692;11.958;2022-10-29T09:23:44;22.25;;;5.07;;
12990;SDS011;6560;57.692;11.958;2022-10-29T09:37:51;23.33;;;5.50;;
12990;SDS011;6560;57.692;11.958;2022-10-29T09:40:36;18.77;;;4.55;;
12990;SDS011;6560;57.692;11.958;2022-10-29T09:43:18;19.80;;;4.22;;
12990;SDS011;6560;57.692;11.958;2022-10-29T09:46:15;22.98;;;4.40;;
12990;SDS011;6560;57.692;11.958;2022-10-29T09:51:51;21.33;;;4.55;;
12990;SDS011;6560;57.692;11.958;2022-10-29T09:54:27;19.55;;;4.32;;
12990;SDS011;6560;57.692;11.958;2022-10-29T09:56:55;11.02;;;3.75;;
12990;SDS011;6560;57.692;11.958;2022-10-29T09:59:42;23.50;;;4.78;;
12990;SDS011;6560;57.692;11.958;2022-10-29T10:02:31;23.15;;;5.10;;
12990;SDS011;6560;57.692;11.958;2022-10-29T10:08:20;22.88;;;6.28;;
12990;SDS011;6560;57.692;11.958;2022-10-29T10:10:55;17.30;;;4.53;;
12990;SDS011;6560;57.692;11.958;2022-10-29T10:13:25;19.55;;;4.75;;
12990;SDS011;6560;57.692;11.958;2022-10-29T10:15:54;25.88;;;5.45;;
12990;SDS011;6560;57.692;11.958;2022-10-29T10:20:58;17.80;;;4.45;;
12990;SDS011;6560;57.692;11.958;2022-10-29T10:23:42;14.98;;;3.70;;
12990;SDS011;6560;57.692;11.958;2022-10-29T10:29:15;18.73;;;4.22;;
12990;SDS011;6560;57.692;11.958;2022-10-29T10:34:20;15.07;;;4.82;;
12990;SDS011;6560;57.692;11.958;2022-10-29T10:36:51;25.80;;;4.63;;
12990;SDS011;6560;57.692;11.958;2022-10-29T10:39:37;15.40;;;4.10;;
12990;SDS011;6560;57.692;11.958;2022-10-29T10:42:15;17.95;;;3.47;;
12990;SDS011;6560;57.692;11.958;2022-10-29T10:44:51;20.70;;;4.45;;
12990;SDS011;6560;57.692;11.958;2022-10-29T10:47:22;19.85;;;4.80;;
12990;SDS011;6560;57.692;11.958;2022-10-29T10:49:51;16.67;;;3.92;;
12990;SDS011;6560;57.692;11.958;2022-10-29T10:52:19;15.27;;;4.00;;
12990;SDS011;6560;57.692;11.958;2022-10-29T10:54:55;23.33;;;5.20;;
12990;SDS011;6560;57.692;11.958;2022-10-29T10:57:25;22.50;;;4.63;;
12990;SDS011;6560;57.692;11.958;2022-10-29T11:02:38;22.95;;;5.78;;
12990;SDS011;6560;57.692;11.958;2022-10-29T11:10:32;18.17;;;4.57;;
12990;SDS011;6560;57.692;11.958;2022-10-29T11:13:01;24.45;;;5.20;;
12990;SDS011;6560;57.692;11.958;2022-10-29T11:15:40;17.23;;;5.47;;
12990;SDS011;6560;57.692;11.958;2022-10-29T11:18:21;15.82;;;3.67;;
12990;SDS011;6560;57.692;11.958;2022-10-29T11:26:47;20.10;;;4.35;;
12990;SDS011;6560;57.692;11.958;2022-10-29T11:32:12;16.92;;;4.63;;
12990;SDS011;6560;57.692;11.958;2022-10-29T11:37:28;22.73;;;6.38;;
12990;SDS011;6560;57.692;11.958;2022-10-29T11:40:02;20.13;;;5.22;;
12990;SDS011;6560;57.692;11.958;2022-10-29T11:42:33;18.08;;;5.10;;
12990;SDS011;6560;57.692;11.958;2022-10-29T11:45:00;19.00;;;5.00;;
12990;SDS011;6560;57.692;11.958;2022-10-29T11:50:25;14.98;;;5.43;;
12990;SDS011;6560;57.692;11.958;2022-10-29T11:53:43;18.85;;;4.80;;
12990;SDS011;6560;57.692;11.958;2022-10-29T12:04:39;20.80;;;5.80;;
12990;SDS011;6560;57.692;11.958;2022-10-29T12:10:08;20.98;;;5.75;;
12990;SDS011;6560;57.692;11.958;2022-10-29T12:13:01;24.73;;;5.60;;
12990;SDS011;6560;57.692;11.958;2022-10-29T12:18:40;20.00;;;5.47;;
12990;SDS011;6560;57.692;11.958;2022-10-29T12:30:16;18.05;;;5.25;;
12990;SDS011;6560;57.692;11.958;2022-10-29T12:35:40;20.33;;;4.00;;
12990;SDS011;6560;57.692;11.958;2022-10-29T12:40:47;23.88;;;5.25;;
12990;SDS011;6560;57.692;11.958;2022-10-29T12:43:36;18.65;;;5.05;;
12990;SDS011;6560;57.692;11.958;2022-10-29T12:48:33;18.80;;;4.60;;
12990;SDS011;6560;57.692;11.958;2022-10-29T12:56:25;20.52;;;4.45;;
12990;SDS011;6560;57.692;11.958;2022-10-29T12:58:56;17.08;;;5.28;;
12990;SDS011;6560;57.692;11.958;2022-10-29T13:09:20;17.85;;;4.65;;
12990;SDS011;6560;57.692;11.958;2022-10-29T13:11:55;18.45;;;5.45;;
12990;SDS011;6560;57.692;11.958;2022-10-29T13:14:22;19.05;;;5.35;;
12990;SDS011;6560;57.692;11.958;2022-10-29T13:17:29;20.45;;;5.40;;
12990;SDS011;6560;57.692;11.958;2022-10-29T13:20:03;14.98;;;4.53;;
12990;SDS011;6560;57.692;11.958;2022-10-29T13:22:57;16.52;;;4.45;;
12990;SDS011;6560;57.692;11.958;2022-10-29T13:30:36;19.98;;;4.70;;
12990;SDS011;6560;57.692;11.958;2022-10-29T13:35:54;19.10;;;4.47;;
12990;SDS011;6560;57.692;11.958;2022-10-29T13:47:00;20.35;;;5.53;;
12990;SDS011;6560;57.692;11.958;2022-10-29T13:52:16;19.75;;;4.70;;
12990;SDS011;6560;57.692;11.958;2022-10-29T14:00:18;22.08;;;5.05;;
12990;SDS011;6560;57.692;11.958;2022-10-29T14:05:50;24.88;;;5.80;;
12990;SDS011;6560;57.692;11.958;2022-10-29T14:10:58;22.40;;;5.05;;
12990;SDS011;6560;57.692;11.958;2022-10-29T14:13:42;28.40;;;5.00;;
12990;SDS011;6560;57.692;11.958;2022-10-29T14:16:15;28.88;;;5.70;;
12990;SDS011;6560;57.692;11.958;2022-10-29T14:21:15;26.45;;;6.30;;
12990;SDS011;6560;57.692;11.958;2022-10-29T14:23:53;26.98;;;4.75;;
12990;SDS011;6560;57.692;11.958;2022-10-29T14:26:29;21.80;;;5.70;;
12990;SDS011;6560;57.692;11.958;2022-10-29T14:31:45;22.38;;;5.40;;
12990;SDS011;6560;57.692;11.958;2022-10-29T14:34:29;27.38;;;7.25;;
12990;SDS011;6560;57.692;11.958;2022-10-29T14:36:57;28.92;;;5.55;;
12990;SDS011;6560;57.692;11.958;2022-10-29T14:39:28;25.25;;;6.03;;
12990;SDS011;6560;57.692;11.958;2022-10-29T14:41:59;23.60;;;5.35;;
12990;SDS011;6560;57.692;11.958;2022-10-29T14:44:26;22.27;;;5.20;;
12990;SDS011;6560;57.692;11.958;2022-10-29T14:49:31;25.52;;;5.07;;
12990;SDS011;6560;57.692;11.958;2022-10-29T14:52:03;24.75;;;6.32;;
12990;SDS011;6560;57.692;11.958;2022-10-29T14:54:35;23.45;;;5.82;;
12990;SDS011;6560;57.692;11.958;2022-10-29T14:57:06;23.38;;;5.78;;
12990;SDS011;6560;57.692;11.958;2022-10-29T14:59:36;32.63;;;6.05;;
12990;SDS011;6560;57.692;11.958;2022-10-29T15:02:09;28.75;;;6.15;;
12990;SDS011;6560;57.692;11.958;2022-10-29T15:04:44;22.77;;;5.28;;
12990;SDS011;6560;57.692;11.958;2022-10-29T15:07:15;28.80;;;5.80;;
12990;SDS011;6560;57.692;11.958;2022-10-29T15:09:41;19.17;;;5.30;;
12990;SDS011;6560;57.692;11.958;2022-10-29T15:12:20;25.80;;;5.60;;
12990;SDS011;6560;57.692;11.958;2022-10-29T15:15:06;24.42;;;6.05;;
12990;SDS011;6560;57.692;11.958;2022-10-29T15:20:44;30.92;;;6.00;;
12990;SDS011;6560;57.692;11.958;2022-10-29T15:23:17;27.17;;;6.15;;
12990;SDS011;6560;57.692;11.958;2022-10-29T15:25:49;25.30;;;5.25;;
12990;SDS011;6560;57.692;11.958;2022-10-29T15:28:22;22.27;;;5.15;;
12990;SDS011;6560;57.692;11.958;2022-10-29T15:30:49;33.40;;;6.43;;
12990;SDS011;6560;57.692;11.958;2022-10-29T15:33:16;30.27;;;6.40;;
12990;SDS011;6560;57.692;11.958;2022-10-29T15:35:48;27.55;;;6.03;;
12990;SDS011;6560;57.692;11.958;2022-10-29T15:43:32;25.38;;;6.05;;
12990;SDS011;6560;57.692;11.958;2022-10-29T15:45:57;23.08;;;5.95;;
12990;SDS011;6560;57.692;11.958;2022-10-29T15:48:27;25.15;;;6.32;;
12990;SDS011;6560;57.692;11.958;2022-10-29T15:51:02;32.45;;;6.85;;
12990;SDS011;6560;57.692;11.958;2022-10-29T15:53:28;21.90;;;5.65;;
12990;SDS011;6560;57.692;11.958;2022-10-29T15:55:54;26.20;;;6.22;;
12990;SDS011;6560;57.692;11.958;2022-10-29T15:58:20;21.23;;;5.13;;
12990;SDS011;6560;57.692;11.958;2022-10-29T16:00:49;30.05;;;5.72;;
12990;SDS011;6560;57.692;11.958;2022-10-29T16:03:16;29.20;;;6.25;;
12990;SDS011;6560;57.692;11.958;2022-10-29T16:05:49;18.33;;;5.50;;
12990;SDS011;6560;57.692;11.958;2022-10-29T16:11:06;29.90;;;7.35;;
12990;SDS011;6560;57.692;11.958;2022-10-29T16:13:36;23.63;;;5.43;;
12990;SDS011;6560;57.692;11.958;2022-10-29T16:16:02;30.40;;;6.20;;
12990;SDS011;6560;57.692;11.958;2022-10-29T16:18:28;42.00;;;7.45;;
12990;SDS011;6560;57.692;11.958;2022-10-29T16:20:55;24.90;;;6.45;;
12990;SDS011;6560;57.692;11.958;2022-10-29T16:23:23;32.10;;;6.97;;
12990;SDS011;6560;57.692;11.958;2022-10-29T16:25:49;24.98;;;5.60;;
12990;SDS011;6560;57.692;11.958;2022-10-29T16:28:14;32.65;;;6.72;;
12990;SDS011;6560;57.692;11.958;2022-10-29T16:30:40;24.70;;;6.23;;
12990;SDS011;6560;57.692;11.958;2022-10-29T16:33:07;38.30;;;7.30;;
12990;SDS011;6560;57.692;11.958;2022-10-29T16:35:34;28.47;;;6.77;;
12990;SDS011;6560;57.692;11.958;2022-10-29T16:38:00;21.70;;;6.20;;
12990;SDS011;6560;57.692;11.958;2022-10-29T16:40:25;31.77;;;6.27;;
12990;SDS011;6560;57.692;11.958;2022-10-29T16:42:53;31.97;;;7.73;;
12990;SDS011;6560;57.692;11.958;2022-10-29T16:45:20;31.97;;;6.53;;
12990;SDS011;6560;57.692;11.958;2022-10-29T16:47:47;37.27;;;8.80;;
12990;SDS011;6560;57.692;11.958;2022-10-29T16:50:15;37.00;;;8.40;;
12990;SDS011;6560;57.692;11.958;2022-10-29T16:52:47;32.43;;;6.93;;
12990;SDS011;6560;57.692;11.958;2022-10-29T16:55:19;27.33;;;5.87;;
12990;SDS011;6560;57.692;11.958;2022-10-29T16:57:45;32.47;;;7.10;;
12990;SDS011;6560;57.692;11.958;2022-10-29T17:00:10;37.67;;;7.23;;
12990;SDS011;6560;57.692;11.958;2022-10-29T17:02:36;37.10;;;8.30;;
12990;SDS011;6560;57.692;11.958;2022-10-29T17:05:02;36.80;;;7.47;;
12990;SDS011;6560;57.692;11.958;2022-10-29T17:07:27;31.67;;;7.33;;
12990;SDS011;6560;57.692;11.958;2022-10-29T17:09:53;41.77;;;9.53;;
12990;SDS011;6560;57.692;11.958;2022-10-29T17:12:18;28.13;;;7.60;;
12990;SDS011;6560;57.692;11.958;2022-10-29T17:14:44;39.17;;;8.63;;
12990;SDS011;6560;57.692;11.958;2022-10-29T17:17:09;29.30;;;6.73;;
12990;SDS011;6560;57.692;11.958;2022-10-29T17:19:35;39.13;;;7.67;;
12990;SDS011;6560;57.692;11.958;2022-10-29T17:22:01;37.23;;;8.57;;
12990;SDS011;6560;57.692;11.958;2022-10-29T17:24:28;41.93;;;8.87;;
12990;SDS011;6560;57.692;11.958;2022-10-29T17:26:53;38.67;;;9.23;;
12990;SDS011;6560;57.692;11.958;2022-10-29T17:29:19;39.60;;;8.40;;
12990;SDS011;6560;57.692;11.958;2022-10-29T17:31:44;33.87;;;6.97;;
12990;SDS011;6560;57.692;11.958;2022-10-29T17:34:10;32.83;;;6.83;;
12990;SDS011;6560;57.692;11.958;2022-10-29T17:36:35;38.67;;;8.77;;
12990;SDS011;6560;57.692;11.958;2022-10-29T17:39:07;38.10;;;8.10;;
12990;SDS011;6560;57.692;11.958;2022-10-29T17:41:32;39.43;;;8.03;;
12990;SDS011;6560;57.692;11.958;2022-10-29T17:43:58;34.43;;;7.57;;
12990;SDS011;6560;57.692;11.958;2022-10-29T17:46:23;29.67;;;7.57;;
12990;SDS011;6560;57.692;11.958;2022-10-29T17:48:53;30.70;;;7.10;;
12990;SDS011;6560;57.692;11.958;2022-10-29T17:51:19;35.23;;;8.03;;